Time;durP1;ratioP1;P1;durP2;ratioP2;P2;SDS_P1;SDS_P2;PMS_P1;PMS_P2;Temp;Humidity;BMP_temperature;BMP_pressure;BME280_temperature;BME280_humidity;BME280_pressure;Samples;Min_cycle;Max_cycle;Signal;HPM_P1;HPM_P2
2021/04/10 00:00:59;;;;;;;69.37;33.67;;;;;;;3.08;49.76;101576.11;125247;1102;104140;-78
2021/04/10 00:03:28;;;;;;;75.07;33.70;;;;;;;3.05;50.08;101579.34;125186;1099;104287;-78
2021/04/10 00:05:56;;;;;;;70.93;32.33;;;;;;;3.03;50.49;101575.73;125216;1099;104158;-78
2021/04/10 00:08:25;;;;;;;78.47;35.03;;;;;;;3.01;49.83;101570.41;125242;1099;104157;-79
2021/04/10 00:10:54;;;;;;;74.07;35.80;;;;;;;3.02;50.09;101567.05;125183;1099;104683;-78
2021/04/10 00:13:23;;;;;;;79.37;35.07;;;;;;;3.01;49.70;101572.11;125221;1099;104143;-78
2021/04/10 00:15:52;;;;;;;68.80;33.63;;;;;;;2.99;49.72;101571.05;125303;1102;104275;-79
2021/04/10 00:18:21;;;;;;;81.53;37.10;;;;;;;2.97;49.93;101567.44;126161;1099;104198;-79
2021/04/10 00:20:50;;;;;;;66.93;33.33;;;;;;;2.90;50.19;101567.69;125146;1099;118838;-77
2021/04/10 00:23:25;;;;;;;75.67;35.97;;;;;;;2.85;49.87;101570.83;125170;1099;104265;-78
2021/04/10 00:25:58;;;;;;;71.53;33.50;;;;;;;2.85;50.25;101576.02;125182;1099;104146;-78
2021/04/10 00:28:30;;;;;;;69.83;33.97;;;;;;;2.85;50.50;101568.23;125094;1099;105901;-78
2021/04/10 00:31:06;;;;;;;72.53;35.63;;;;;;;2.85;50.33;101573.42;126255;1099;104191;-78
2021/04/10 00:33:40;;;;;;;73.05;35.00;;;;;;;2.84;50.35;101571.59;126303;1099;104155;-78
2021/04/10 00:36:09;;;;;;;75.70;34.80;;;;;;;2.83;50.53;101574.95;126244;1098;104206;-78
2021/04/10 00:38:40;;;;;;;69.83;33.77;;;;;;;2.81;50.47;101576.52;126301;1098;104226;-77
2021/04/10 00:41:11;;;;;;;73.50;33.33;;;;;;;2.77;50.08;101574.44;126300;1099;104162;-78
2021/04/10 00:43:40;;;;;;;76.63;32.73;;;;;;;2.73;50.37;101569.80;126311;1099;104146;-78
2021/04/10 00:46:10;;;;;;;76.87;35.47;;;;;;;2.74;50.69;101573.28;126289;1099;104146;-77
2021/04/10 00:48:39;;;;;;;77.63;35.57;;;;;;;2.73;50.65;101574.98;126233;1098;104258;-77
2021/04/10 00:51:08;;;;;;;69.87;34.67;;;;;;;2.73;50.80;101574.05;126240;1099;104226;-77
2021/04/10 00:53:38;;;;;;;75.83;34.30;;;;;;;2.71;50.66;101568.73;126288;1099;104150;-78
2021/04/10 00:56:08;;;;;;;70.83;32.83;;;;;;;2.70;51.00;101566.95;126290;1099;104149;-78
2021/04/10 00:58:37;;;;;;;67.17;31.73;;;;;;;2.69;51.27;101571.20;126313;1098;104329;-78
2021/04/10 01:01:07;;;;;;;74.23;33.07;;;;;;;2.69;51.18;101570.30;126227;1099;104275;-78
2021/04/10 01:03:37;;;;;;;69.30;31.77;;;;;;;2.66;51.17;101563.16;126277;1099;104284;-78
2021/04/10 01:06:07;;;;;;;73.50;32.27;;;;;;;2.64;51.25;101569.02;126188;1099;104280;-78
2021/04/10 01:08:35;;;;;;;70.07;32.13;;;;;;;2.61;51.68;101568.76;126279;1099;104142;-78
2021/04/10 01:11:18;;;;;;;61.07;29.07;;;;;;;2.56;51.52;101564.88;126270;1099;104139;-79
2021/04/10 01:14:03;;;;;;;66.00;30.97;;;;;;;2.53;51.82;101557.74;126239;1099;104268;-78
2021/04/10 01:16:40;;;;;;;64.47;30.40;;;;;;;2.51;51.13;101565.39;126259;1099;104204;-77
2021/04/10 01:19:27;;;;;;;72.47;32.27;;;;;;;2.48;51.48;101565.13;126268;1099;104137;-78
2021/04/10 01:22:08;;;;;;;72.20;31.93;;;;;;;2.42;51.65;101561.12;126304;1098;107734;-77
2021/04/10 01:24:49;;;;;;;67.20;33.10;;;;;;;2.39;51.77;101563.44;126290;1099;104157;-77
2021/04/10 01:27:38;;;;;;;71.17;33.53;;;;;;;2.37;51.62;101560.72;126261;1099;104274;-78
2021/04/10 01:30:11;;;;;;;77.10;34.77;;;;;;;2.32;51.64;101564.58;126229;1099;104142;-78
2021/04/10 01:32:53;;;;;;;67.50;31.70;;;;;;;2.27;51.88;101584.01;126213;1099;104217;-78
2021/04/10 01:35:38;;;;;;;70.60;31.53;;;;;;;2.27;52.22;101578.83;126305;1099;104172;-78
2021/04/10 01:38:15;;;;;;;63.13;30.10;;;;;;;2.27;51.88;101576.23;126303;1099;104320;-78
2021/04/10 01:40:56;;;;;;;65.57;30.93;;;;;;;2.26;52.29;101583.11;126196;1098;104206;-78
2021/04/10 01:43:35;;;;;;;67.23;31.20;;;;;;;2.25;52.20;101582.98;126302;1099;104156;-78
2021/04/10 01:46:09;;;;;;;55.40;29.00;;;;;;;2.22;52.03;101586.20;126254;1099;104734;-78
2021/04/10 01:48:45;;;;;;;62.17;30.80;;;;;;;2.20;51.63;101579.98;126314;1099;104274;-78
2021/04/10 01:51:18;;;;;;;63.87;30.20;;;;;;;2.20;52.67;101571.30;126214;1099;104275;-78
2021/04/10 01:53:50;;;;;;;63.80;30.90;;;;;;;2.15;52.76;101569.23;126144;1099;104223;-78
2021/04/10 01:56:23;;;;;;;72.80;33.20;;;;;;;2.11;52.07;101571.42;125415;1099;104226;-78
2021/04/10 01:58:57;;;;;;;65.57;30.70;;;;;;;2.09;51.69;101570.39;126181;1099;104354;-78
2021/04/10 02:01:38;;;;;;;67.53;31.03;;;;;;;2.06;51.97;101571.02;125655;1099;104692;-78
2021/04/10 02:04:09;;;;;;;60.53;28.93;;;;;;;2.07;52.60;101571.92;125180;1099;105588;-78
2021/04/10 02:06:47;;;;;;;71.73;31.67;;;;;;;2.05;52.76;101576.97;125204;1099;104284;-78
2021/04/10 02:09:18;;;;;;;64.20;29.93;;;;;;;2.04;52.81;101569.99;125276;1099;104561;-78
2021/04/10 02:11:59;;;;;;;62.47;28.67;;;;;;;2.05;52.76;101570.89;125173;1099;104428;-79
2021/04/10 02:14:34;;;;;;;66.83;31.90;;;;;;;2.06;52.79;101572.72;125273;1099;104152;-79
2021/04/10 02:17:06;;;;;;;72.10;32.67;;;;;;;2.04;52.76;101575.17;125253;1099;104277;-78
2021/04/10 02:19:40;;;;;;;71.40;33.30;;;;;;;2.01;52.91;101579.16;125246;1099;104396;-77
2021/04/10 02:22:12;;;;;;;67.80;33.03;;;;;;;1.98;52.80;101577.23;125222;1098;102409;-78
2021/04/10 02:24:42;;;;;;;71.40;32.75;;;;;;;1.97;52.75;101573.70;125460;1099;104156;-78
2021/04/10 02:27:13;;;;;;;75.77;35.13;;;;;;;1.97;52.77;101572.81;126294;1098;104137;-78
2021/04/10 02:29:58;;;;;;;75.33;33.63;;;;;;;1.94;52.90;101577.72;126273;1099;104296;-77
2021/04/10 02:32:35;;;;;;;73.50;32.67;;;;;;;1.90;52.67;101575.63;126204;1099;104251;-77
2021/04/10 02:35:12;;;;;;;72.90;33.77;;;;;;;1.85;52.64;101577.80;126293;1099;104217;-78
2021/04/10 02:37:50;;;;;;;69.80;32.17;;;;;;;1.80;53.00;101577.41;126328;1099;104120;-77
2021/04/10 02:40:24;;;;;;;75.80;33.60;;;;;;;1.78;52.86;101578.96;126289;1098;104261;-78
2021/04/10 02:42:55;;;;;;;65.93;31.57;;;;;;;1.80;53.22;101581.68;126214;1099;104153;-79
2021/04/10 02:45:29;;;;;;;67.67;32.47;;;;;;;1.78;52.95;101573.78;126264;1099;104249;-78
2021/04/10 02:48:08;;;;;;;69.63;33.70;;;;;;;1.77;52.91;101574.55;126289;1098;104169;-78
2021/04/10 02:50:38;;;;;;;68.77;33.30;;;;;;;1.77;53.40;101578.82;126297;1098;104152;-79
2021/04/10 02:53:09;;;;;;;64.10;30.50;;;;;;;1.76;53.51;101577.92;126258;1099;104195;-78
2021/04/10 02:55:44;;;;;;;67.13;32.40;;;;;;;1.74;53.46;101578.55;126251;1099;104226;-79
2021/04/10 02:58:18;;;;;;;62.87;31.73;;;;;;;1.72;53.01;101580.11;126245;1099;104156;-78
2021/04/10 03:00:48;;;;;;;65.97;32.17;;;;;;;1.72;53.57;101575.83;126255;1099;104595;-79
2021/04/10 03:03:22;;;;;;;64.33;32.90;;;;;;;1.73;53.76;101571.55;126241;1099;104219;-78
2021/04/10 03:05:54;;;;;;;62.93;31.47;;;;;;;1.73;53.11;101571.55;126325;1099;104264;-78
2021/04/10 03:08:25;;;;;;;59.93;27.80;;;;;;;1.73;53.71;101576.73;126319;1099;104220;-78
2021/04/10 03:10:58;;;;;;;56.93;27.30;;;;;;;1.72;53.23;101572.34;126293;1099;104152;-78
2021/04/10 03:13:28;;;;;;;54.23;28.23;;;;;;;1.74;53.75;101576.86;126248;1099;104277;-78
2021/04/10 03:16:06;;;;;;;56.93;28.90;;;;;;;1.73;53.49;101575.07;126265;1099;104152;-78
2021/04/10 03:18:37;;;;;;;63.67;28.83;;;;;;;1.73;53.88;101582.83;126316;1098;104162;-78
2021/04/10 03:21:10;;;;;;;59.03;29.63;;;;;;;1.73;53.77;101588.00;126293;1099;104194;-79
2021/04/10 03:23:45;;;;;;;63.03;30.17;;;;;;;1.75;53.34;101583.86;126234;1099;104277;-79
2021/04/10 03:26:17;;;;;;;64.10;28.77;;;;;;;1.76;53.74;101580.52;126254;1099;104146;-79
2021/04/10 03:28:49;;;;;;;65.00;30.30;;;;;;;1.78;53.96;101591.00;126294;1099;104599;-79
2021/04/10 03:31:19;;;;;;;57.00;29.90;;;;;;;1.77;54.00;101587.48;126225;1099;104136;-78
2021/04/10 03:33:49;;;;;;;62.40;29.90;;;;;;;1.78;53.80;101591.90;126213;1098;104280;-78
2021/04/10 03:36:19;;;;;;;56.67;27.60;;;;;;;1.79;53.69;101585.96;126241;1099;104573;-78
2021/04/10 03:38:48;;;;;;;58.93;29.67;;;;;;;1.81;54.07;101583.51;126288;1099;104144;-78
2021/04/10 03:41:18;;;;;;;61.20;30.60;;;;;;;1.82;53.63;101587.89;126290;1099;104143;-79
2021/04/10 03:43:47;;;;;;;63.67;30.37;;;;;;;1.82;53.98;101587.89;126237;1099;104270;-79
2021/04/10 03:46:17;;;;;;;61.20;29.80;;;;;;;1.80;53.90;101589.45;126290;1099;104270;-78
2021/04/10 03:48:47;;;;;;;66.50;31.03;;;;;;;1.77;53.75;101592.66;126251;1099;104223;-77
2021/04/10 03:51:21;;;;;;;59.97;30.53;;;;;;;1.82;54.38;101592.17;126229;1099;104150;-78
2021/04/10 03:53:54;;;;;;;64.75;30.75;;;;;;;1.86;54.20;101596.86;126223;1099;104268;-79
2021/04/10 03:56:25;;;;;;;73.97;32.57;;;;;;;1.89;54.25;101592.84;126273;1099;104198;-78
2021/04/10 03:58:55;;;;;;;68.53;29.60;;;;;;;1.92;53.71;101592.22;126285;1099;104139;-79
2021/04/10 04:01:35;;;;;;;69.33;30.30;;;;;;;1.92;54.13;101589.63;126220;1099;104287;-78
2021/04/10 04:04:05;;;;;;;71.17;31.87;;;;;;;1.94;53.90;101590.66;126256;1097;104146;-78
2021/04/10 04:06:33;;;;;;;69.73;31.83;;;;;;;1.96;54.41;101592.63;126305;1099;104275;-78
2021/04/10 04:09:02;;;;;;;71.80;33.03;;;;;;;2.00;54.01;101596.37;126297;1099;104132;-78
2021/04/10 04:11:31;;;;;;;71.70;32.07;;;;;;;2.03;54.44;101591.47;126273;1099;104139;-78
2021/04/10 04:14:00;;;;;;;78.33;34.17;;;;;;;2.07;54.69;101593.56;126230;1099;104220;-78
2021/04/10 04:16:28;;;;;;;69.30;33.83;;;;;;;2.12;54.69;101596.52;126265;1099;104204;-78
2021/04/10 04:18:57;;;;;;;67.87;32.77;;;;;;;2.13;54.32;101596.66;126310;1099;104168;-78
2021/04/10 04:21:26;;;;;;;66.50;32.00;;;;;;;2.18;54.55;101593.56;126238;1099;104207;-78
2021/04/10 04:23:55;;;;;;;72.13;34.37;;;;;;;2.23;54.56;101607.81;126252;1098;104140;-78
2021/04/10 04:26:23;;;;;;;74.77;33.77;;;;;;;2.30;54.62;101605.89;126188;1099;104249;-78
2021/04/10 04:28:52;;;;;;;62.10;28.17;;;;;;;2.37;54.64;101598.65;126295;1099;104136;-78
2021/04/10 04:31:21;;;;;;;69.73;31.47;;;;;;;2.42;54.04;101606.05;126256;1098;104140;-78
2021/04/10 04:33:50;;;;;;;58.50;29.17;;;;;;;2.49;54.68;101597.11;126168;1099;104153;-78
2021/04/10 04:36:19;;;;;;;60.37;30.73;;;;;;;2.56;54.49;101602.05;126183;1099;104268;-78
2021/04/10 04:38:48;;;;;;;53.50;28.33;;;;;;;2.64;54.62;101602.70;126155;1099;104315;-78
2021/04/10 04:41:17;;;;;;;60.80;29.43;;;;;;;2.72;54.26;101592.99;126193;1099;104156;-78
2021/04/10 04:43:45;;;;;;;57.80;26.83;;;;;;;2.82;54.85;101599.09;126193;1099;104155;-78
2021/04/10 04:46:14;;;;;;;55.77;25.50;;;;;;;2.90;54.46;101601.39;126124;1099;104238;-78
2021/04/10 04:48:43;;;;;;;50.67;24.90;;;;;;;2.96;54.12;101596.73;126173;1099;104249;-78
2021/04/10 04:51:18;;;;;;;58.23;25.07;;;;;;;3.03;54.37;101602.55;126238;1098;105329;-78
2021/04/10 04:53:47;;;;;;;43.93;22.53;;;;;;;3.13;54.81;101605.91;126294;1098;104592;-78
2021/04/10 04:56:16;;;;;;;41.83;21.67;;;;;;;3.18;54.38;101602.01;126141;1099;104230;-78
2021/04/10 04:58:45;;;;;;;49.00;23.43;;;;;;;3.26;53.72;101611.36;126281;1099;104149;-77
2021/04/10 05:01:14;;;;;;;42.30;21.60;;;;;;;3.37;54.58;101609.65;126251;1099;104284;-78
2021/04/10 05:03:43;;;;;;;42.73;20.57;;;;;;;3.44;53.94;101604.16;126292;1099;104672;-77
2021/04/10 05:06:11;;;;;;;47.63;21.53;;;;;;;3.52;54.03;101605.72;126120;1099;104204;-77
2021/04/10 05:08:40;;;;;;;42.27;21.33;;;;;;;3.60;54.45;101603.75;126204;1099;104272;-77
2021/04/10 05:11:09;;;;;;;49.10;21.93;;;;;;;3.69;54.23;101604.46;126296;1098;104134;-77
2021/04/10 05:13:38;;;;;;;42.03;20.47;;;;;;;3.77;54.13;101606.02;126299;1099;104707;-78
2021/04/10 05:16:08;;;;;;;42.10;20.40;;;;;;;3.85;53.68;101604.03;126155;1099;104296;-78
2021/04/10 05:18:36;;;;;;;40.93;19.80;;;;;;;3.95;54.33;101597.88;126291;1099;104208;-77
2021/04/10 05:21:05;;;;;;;39.63;20.53;;;;;;;4.07;54.41;101605.75;125426;1099;104274;-77
2021/04/10 05:23:34;;;;;;;45.97;20.90;;;;;;;4.17;53.79;101608.27;126245;1099;102962;-78
2021/04/10 05:26:04;;;;;;;47.57;22.43;;;;;;;4.27;54.57;101604.70;126181;1099;104779;-78
2021/04/10 05:28:33;;;;;;;39.90;20.13;;;;;;;4.36;54.38;101605.42;126265;1099;104268;-78
2021/04/10 05:31:01;;;;;;;39.60;19.27;;;;;;;4.47;53.69;101606.27;126235;1099;104277;-78
2021/04/10 05:33:31;;;;;;;39.87;19.17;;;;;;;4.56;54.24;101603.48;126275;1099;104159;-77
2021/04/10 05:36:00;;;;;;;37.67;18.17;;;;;;;4.66;54.22;101606.91;126144;1099;102989;-77
2021/04/10 05:38:29;;;;;;;38.57;19.77;;;;;;;4.76;54.24;101607.63;126187;1099;104146;-77
2021/04/10 05:40:58;;;;;;;43.63;20.50;;;;;;;4.86;54.04;101604.92;126084;1099;104262;-77
2021/04/10 05:43:27;;;;;;;40.80;19.70;;;;;;;4.99;53.93;101604.18;126226;1099;104155;-78
2021/04/10 05:45:55;;;;;;;35.60;17.23;;;;;;;5.08;53.93;101602.28;126193;1099;104194;-78
2021/04/10 05:48:24;;;;;;;34.13;17.97;;;;;;;5.19;53.53;101595.28;126319;1099;104150;-78
2021/04/10 05:50:53;;;;;;;36.93;17.50;;;;;;;5.31;53.50;101606.57;126229;1098;104223;-78
2021/04/10 05:53:22;;;;;;;36.73;16.63;;;;;;;5.42;53.54;101602.16;126108;1099;104241;-78
2021/04/10 05:55:51;;;;;;;36.30;17.17;;;;;;;5.52;53.80;101595.97;126203;1099;104274;-77
2021/04/10 05:58:20;;;;;;;41.33;16.63;;;;;;;5.65;53.82;101597.76;126278;1099;104134;-79
2021/04/10 06:00:49;;;;;;;29.40;14.60;;;;;;;5.72;53.56;101598.32;126212;1099;104204;-79
2021/04/10 06:03:18;;;;;;;31.07;14.33;;;;;;;5.80;53.07;101608.37;126118;1099;104139;-79
2021/04/10 06:05:49;;;;;;;33.03;15.40;;;;;;;5.91;53.78;101608.36;126080;1099;104152;-79
2021/04/10 06:08:21;;;;;;;36.53;16.77;;;;;;;6.04;53.34;101610.17;126135;1099;104169;-79
2021/04/10 06:10:50;;;;;;;30.10;15.60;;;;;;;6.13;53.10;101611.66;126119;1099;104300;-79
2021/04/10 06:13:20;;;;;;;31.80;15.40;;;;;;;6.20;52.96;101595.63;126173;1098;104634;-79
2021/04/10 06:15:48;;;;;;;29.97;14.83;;;;;;;6.27;53.15;101588.36;126092;1098;104140;-78
2021/04/10 06:18:18;;;;;;;31.23;15.50;;;;;;;6.38;52.82;101599.54;126132;1099;104197;-79
2021/04/10 06:20:46;;;;;;;32.43;14.93;;;;;;;6.49;52.77;101592.47;126154;1099;104188;-77
2021/04/10 06:23:15;;;;;;;34.67;16.27;;;;;;;6.59;52.70;101599.22;125324;1099;104513;-77
2021/04/10 06:25:44;;;;;;;33.13;15.67;;;;;;;6.72;52.73;101601.00;126147;1099;104759;-77
2021/04/10 06:28:13;;;;;;;31.43;14.97;;;;;;;6.83;52.64;101589.58;126120;1099;104331;-77
2021/04/10 06:30:42;;;;;;;38.43;16.20;;;;;;;6.96;52.31;101593.92;126096;1099;104146;-78
2021/04/10 06:33:12;;;;;;;35.27;16.03;;;;;;;7.09;52.44;101607.02;126192;1099;104149;-78
2021/04/10 06:35:41;;;;;;;35.17;15.87;;;;;;;7.24;52.83;101601.00;126264;1099;104271;-78
2021/04/10 06:38:10;;;;;;;32.30;15.50;;;;;;;7.37;52.49;101598.41;126221;1099;106104;-78
2021/04/10 06:40:41;;;;;;;35.90;15.90;;;;;;;7.52;52.50;101598.50;126274;1099;104140;-78
2021/04/10 06:43:11;;;;;;;36.80;16.30;;;;;;;7.67;52.21;101598.61;126130;1098;104140;-77
2021/04/10 06:45:45;;;;;;;35.80;16.77;;;;;;;7.79;52.29;101591.57;126069;1099;104147;-78
2021/04/10 06:48:19;;;;;;;31.93;15.57;;;;;;;7.93;51.91;101597.65;126095;1099;104181;-77
2021/04/10 06:51:05;;;;;;;37.37;17.00;;;;;;;8.07;51.87;101595.91;126136;1099;104372;-78
2021/04/10 06:53:55;;;;;;;30.23;15.20;;;;;;;8.26;51.90;101593.66;126239;1099;104213;-77
2021/04/10 06:56:27;;;;;;;33.97;13.83;;;;;;;8.42;52.03;101594.62;125859;1099;101802;-78
2021/04/10 06:59:04;;;;;;;21.80;9.23;;;;;;;8.58;51.39;101592.16;126030;1099;104171;-78
2021/04/10 07:01:35;;;;;;;16.93;7.70;;;;;;;8.93;51.23;101595.13;126155;1099;104291;-77
2021/04/10 07:04:06;;;;;;;17.50;7.53;;;;;;;9.17;50.95;101593.94;126085;1099;104284;-77
2021/04/10 07:06:37;;;;;;;15.70;6.67;;;;;;;9.44;50.87;101592.84;126114;1099;104220;-77
2021/04/10 07:09:06;;;;;;;20.07;6.43;;;;;;;9.71;51.05;101597.04;126145;1099;104254;-77
2021/04/10 07:11:35;;;;;;;16.13;7.00;;;;;;;9.95;50.66;101600.95;126225;1099;104143;-77
2021/04/10 07:14:04;;;;;;;14.93;6.43;;;;;;;10.17;49.92;101593.44;126314;1099;104181;-77
2021/04/10 07:16:39;;;;;;;16.03;7.07;;;;;;;10.38;49.89;101588.50;126071;1099;104213;-77
2021/04/10 07:19:11;;;;;;;12.80;6.17;;;;;;;10.57;50.04;101584.25;126233;1099;119135;-77
2021/04/10 07:21:40;;;;;;;15.43;6.10;;;;;;;10.77;50.08;101586.19;126226;1099;104108;-77
2021/04/10 07:24:11;;;;;;;14.77;6.03;;;;;;;10.98;49.55;101588.11;126286;1099;104136;-78
2021/04/10 07:26:52;;;;;;;14.43;5.80;;;;;;;11.17;49.05;101583.80;125273;1102;104252;-78
2021/04/10 07:29:32;;;;;;;15.80;6.30;;;;;;;11.41;48.76;101589.40;125191;1102;106610;-77
2021/04/10 07:32:11;;;;;;;14.87;6.00;;;;;;;11.55;48.37;101579.56;125301;1099;104450;-77
2021/04/10 07:34:45;;;;;;;13.47;5.83;;;;;;;11.64;47.79;101578.28;125255;1099;104159;-77
2021/04/10 07:37:30;;;;;;;13.90;5.90;;;;;;;11.81;47.44;101580.80;125218;1099;104245;-77
2021/04/10 07:40:00;;;;;;;14.07;5.73;;;;;;;11.91;47.01;101583.05;125232;1102;109438;-78
2021/04/10 07:42:30;;;;;;;12.10;5.30;;;;;;;12.05;47.09;101576.74;125240;1102;104296;-78
2021/04/10 07:44:59;;;;;;;15.13;5.60;;;;;;;12.18;47.18;101580.84;125182;1102;104146;-78
2021/04/10 07:47:39;;;;;;;13.47;5.60;;;;;;;12.26;46.67;101578.56;124924;1102;104198;-78
2021/04/10 07:50:20;;;;;;;14.30;6.00;;;;;;;12.37;46.45;101571.16;124955;1102;104159;-78
2021/04/10 07:52:50;;;;;;;16.17;5.30;;;;;;;12.47;46.22;101575.13;125116;1102;104291;-77
2021/04/10 07:55:41;;;;;;;12.10;5.53;;;;;;;12.48;46.36;101569.94;125169;1102;104149;-77
2021/04/10 07:58:25;;;;;;;11.40;5.60;;;;;;;12.55;46.23;101577.25;125187;1102;104235;-77
2021/04/10 08:00:57;;;;;;;12.40;5.78;;;;;;;12.66;43.71;101576.84;125188;1102;104178;-77
2021/04/10 08:03:30;;;;;;;14.17;5.80;;;;;;;12.70;44.82;101571.78;125212;1102;104303;-78
2021/04/10 08:06:13;;;;;;;15.67;5.93;;;;;;;12.71;44.44;101568.30;125240;1102;104159;-78
2021/04/10 08:08:52;;;;;;;14.43;5.43;;;;;;;12.74;44.95;101573.70;125218;1102;101812;-78
2021/04/10 08:11:35;;;;;;;13.37;6.00;;;;;;;12.77;44.62;101575.58;125414;1102;104524;-77
2021/04/10 08:14:08;;;;;;;10.23;5.20;;;;;;;12.89;44.02;101567.33;126158;1099;105285;-77
2021/04/10 08:16:42;;;;;;;12.90;5.77;;;;;;;12.91;43.79;101563.90;125264;1099;104144;-77
2021/04/10 08:19:12;;;;;;;11.30;5.35;;;;;;;12.95;43.99;101573.75;125644;1099;105346;-77
2021/04/10 08:21:50;;;;;;;11.70;5.77;;;;;;;13.00;44.49;101567.79;126228;1099;104152;-77
2021/04/10 08:24:33;;;;;;;14.63;5.60;;;;;;;13.06;44.01;101558.40;126290;1099;104245;-78
2021/04/10 08:27:04;;;;;;;14.80;5.43;;;;;;;13.06;43.72;101562.78;126196;1099;104143;-77
2021/04/10 08:29:34;;;;;;;13.73;5.70;;;;;;;13.04;43.58;101559.16;126205;1099;104271;-78
2021/04/10 08:32:05;;;;;;;12.43;5.53;;;;;;;13.08;43.10;101563.73;126331;1099;104166;-78
2021/04/10 08:34:34;;;;;;;10.37;5.03;;;;;;;13.19;42.62;101559.81;126188;1099;104152;-79
2021/04/10 08:37:07;;;;;;;8.73;4.57;;;;;;;13.29;42.75;101556.73;126229;1099;104140;-78
2021/04/10 08:39:39;;;;;;;12.47;5.23;;;;;;;13.45;42.47;101552.13;126166;1099;104236;-77
2021/04/10 08:42:12;;;;;;;9.03;4.50;;;;;;;13.56;41.91;101548.18;126051;1099;104530;-77
2021/04/10 08:44:41;;;;;;;11.50;4.73;;;;;;;13.62;42.29;101540.52;126168;1099;104198;-77
2021/04/10 08:47:11;;;;;;;10.47;5.20;;;;;;;13.74;41.58;101544.47;126144;1099;104376;-77
2021/04/10 08:49:47;;;;;;;10.50;4.57;;;;;;;13.82;41.70;101546.58;126199;1099;104144;-78
2021/04/10 08:52:22;;;;;;;13.63;4.93;;;;;;;13.89;42.00;101545.07;126127;1099;104136;-78
2021/04/10 08:54:52;;;;;;;10.87;4.13;;;;;;;13.79;41.37;101542.90;126268;1099;104149;-78
2021/04/10 08:57:21;;;;;;;7.77;4.00;;;;;;;13.79;40.69;101535.91;126146;1099;104139;-78
2021/04/10 08:59:53;;;;;;;10.73;4.40;;;;;;;13.89;40.95;101538.91;126206;1098;104140;-78
2021/04/10 09:02:23;;;;;;;11.47;4.70;;;;;;;13.81;40.27;101536.86;126247;1099;104267;-77
2021/04/10 09:05:05;;;;;;;10.03;4.73;;;;;;;13.72;40.59;101538.24;126237;1098;104155;-78
2021/04/10 09:08:02;;;;;;;10.63;4.63;;;;;;;13.77;40.24;101534.03;126192;1098;104159;-77
2021/04/10 09:10:45;;;;;;;9.33;4.57;;;;;;;13.76;40.65;101529.59;126178;1098;104191;-78
2021/04/10 09:13:32;;;;;;;9.90;4.77;;;;;;;13.79;40.41;101533.27;126250;1099;104205;-77
2021/04/10 09:16:25;;;;;;;10.70;4.60;;;;;;;13.88;39.22;101530.06;126220;1099;104139;-77
2021/04/10 09:18:56;;;;;;;9.00;4.37;;;;;;;13.99;37.20;101527.84;126296;1099;105141;-77
2021/04/10 09:21:35;;;;;;;7.80;4.20;;;;;;;14.08;38.86;101530.83;126264;1098;104192;-78
2021/04/10 09:24:23;;;;;;;12.77;4.47;;;;;;;14.14;39.68;101514.34;126212;1099;104153;-76
2021/04/10 09:27:00;;;;;;;11.23;4.33;;;;;;;14.17;38.99;101519.73;126220;1099;104175;-77
2021/04/10 09:29:31;;;;;;;9.70;4.60;;;;;;;14.11;39.07;101507.20;126272;1099;104319;-77
2021/04/10 09:32:02;;;;;;;9.30;4.33;;;;;;;14.14;38.58;101509.95;126416;1098;104165;-77
2021/04/10 09:34:51;;;;;;;8.13;3.87;;;;;;;14.12;38.99;101508.12;126240;1099;104268;-78
2021/04/10 09:37:45;;;;;;;10.27;4.53;;;;;;;14.12;39.60;101510.75;126283;1099;104127;-77
2021/04/10 09:40:20;;;;;;;9.33;3.87;;;;;;;14.20;37.88;101511.93;126112;1099;104322;-78
2021/04/10 09:42:52;;;;;;;7.10;3.90;;;;;;;14.21;38.14;101503.18;126121;1099;104165;-77
2021/04/10 09:45:30;;;;;;;10.50;4.33;;;;;;;14.18;37.89;101509.23;126182;1099;104143;-77
2021/04/10 09:48:18;;;;;;;9.87;4.30;;;;;;;14.16;37.56;101496.81;126160;1099;104297;-77
2021/04/10 09:51:10;;;;;;;12.77;4.73;;;;;;;14.04;37.74;101497.27;126146;1098;104143;-77
2021/04/10 09:53:39;;;;;;;10.23;4.30;;;;;;;13.94;37.48;101496.00;126199;1099;104149;-77
2021/04/10 09:56:12;;;;;;;8.73;3.90;;;;;;;14.05;37.71;101500.80;126146;1099;104329;-77
2021/04/10 09:58:44;;;;;;;7.90;4.10;;;;;;;14.11;37.80;101488.72;126239;1099;104185;-77
2021/04/10 10:01:16;;;;;;;9.03;3.90;;;;;;;14.19;36.58;101496.92;125993;1099;105314;-77
2021/04/10 10:03:47;;;;;;;8.83;3.77;;;;;;;14.25;36.82;101493.63;126029;1099;104328;-77
2021/04/10 10:06:27;;;;;;;8.77;3.77;;;;;;;14.32;36.41;101492.98;126088;1099;104201;-78
2021/04/10 10:08:57;;;;;;;8.27;4.00;;;;;;;14.45;36.53;101494.34;126101;1099;104261;-77
2021/04/10 10:11:26;;;;;;;9.57;4.10;;;;;;;14.51;36.35;101482.25;125914;1099;104155;-77
2021/04/10 10:13:57;;;;;;;11.60;4.45;;;;;;;14.50;36.22;101482.19;126006;1099;104290;-77
2021/04/10 10:16:29;;;;;;;8.47;3.97;;;;;;;14.46;36.44;101472.36;125364;1099;104316;-76
2021/04/10 10:18:58;;;;;;;8.50;4.20;;;;;;;14.47;36.22;101476.80;125361;1099;102842;-78
2021/04/10 10:21:31;;;;;;;8.10;3.60;;;;;;;14.49;37.06;101465.46;125959;1099;104778;-78
2021/04/10 10:24:01;;;;;;;7.07;3.67;;;;;;;14.53;35.80;101477.02;126034;1099;104430;-78
2021/04/10 10:26:33;;;;;;;6.73;3.70;;;;;;;14.55;35.84;101464.75;126127;1098;104300;-79
2021/04/10 10:29:07;;;;;;;9.10;3.70;;;;;;;14.51;35.46;101463.76;126024;1099;104354;-78
2021/04/10 10:31:47;;;;;;;9.13;4.10;;;;;;;14.46;36.32;101467.99;126086;1099;104164;-77
2021/04/10 10:34:20;;;;;;;11.30;3.93;;;;;;;14.47;36.43;101458.31;126098;1099;104153;-76
2021/04/10 10:36:51;;;;;;;7.42;3.72;;;;;;;14.43;36.02;101448.48;126119;1099;104256;-78
2021/04/10 10:39:32;;;;;;;8.33;3.67;;;;;;;14.42;35.57;101454.63;125404;1099;104203;-78
2021/04/10 10:42:05;;;;;;;8.03;3.77;;;;;;;14.42;35.34;101442.31;125338;1099;104440;-77
2021/04/10 10:44:36;;;;;;;7.15;3.00;;;;;;;14.44;34.49;101439.72;126273;1099;104139;-77
2021/04/10 10:47:07;;;;;;;8.87;3.70;;;;;;;14.46;35.68;101451.23;126313;1099;104262;-77
2021/04/10 10:49:36;;;;;;;9.47;3.93;;;;;;;14.45;35.62;101442.42;126209;1099;104277;-78
2021/04/10 10:52:06;;;;;;;6.53;3.37;;;;;;;14.48;34.03;101441.64;126015;1099;104293;-78
2021/04/10 10:54:37;;;;;;;8.03;4.17;;;;;;;14.53;34.28;101426.84;126200;1099;104172;-77
2021/04/10 10:57:11;;;;;;;7.50;3.85;;;;;;;14.50;34.84;101426.73;126205;1099;104387;-77
2021/04/10 10:59:40;;;;;;;8.63;3.97;;;;;;;14.42;34.66;101431.75;126303;1099;104285;-77
2021/04/10 11:02:10;;;;;;;8.20;3.47;;;;;;;14.35;34.17;101424.45;125259;1099;104213;-77
2021/04/10 11:04:41;;;;;;;9.67;4.00;;;;;;;14.34;34.93;101431.48;126258;1099;104195;-77
2021/04/10 11:07:13;;;;;;;9.90;4.17;;;;;;;14.41;34.91;101429.05;126182;1099;104195;-76
2021/04/10 11:09:44;;;;;;;7.07;3.47;;;;;;;14.50;34.32;101422.34;126259;1099;104285;-79
2021/04/10 11:12:16;;;;;;;8.53;3.60;;;;;;;14.54;34.33;101416.33;126226;1099;104200;-77
2021/04/10 11:14:47;;;;;;;7.67;3.73;;;;;;;14.58;34.91;101416.44;126211;1099;104162;-77
2021/04/10 11:17:30;;;;;;;7.20;3.30;;;;;;;14.57;34.07;101415.55;126260;1099;104165;-77
2021/04/10 11:20:21;;;;;;;8.53;3.80;;;;;;;14.51;33.91;101408.30;126284;1098;104178;-78
2021/04/10 11:23:04;;;;;;;10.00;3.80;;;;;;;14.55;34.87;101406.66;126238;1099;104216;-78
2021/04/10 11:25:49;;;;;;;12.27;3.80;;;;;;;14.60;34.33;101404.16;126288;1099;105299;-77
2021/04/10 11:28:32;;;;;;;12.37;4.17;;;;;;;14.60;33.84;101405.12;126215;1099;104159;-78